createdAt,value
2023-02-02T00:01:34.082Z,1.08
2023-02-02T00:04:01.637Z,0.68
2023-02-02T00:06:30.626Z,0.60
2023-02-02T00:08:59.375Z,1.73
2023-02-02T00:11:27.185Z,1.10
2023-02-02T00:13:54.384Z,0.57
2023-02-02T00:16:27.211Z,1.70
2023-02-02T00:18:56.418Z,1.08
2023-02-02T00:21:23.675Z,0.68
2023-02-02T00:23:50.640Z,0.32
2023-02-02T00:26:18.051Z,1.15
2023-02-02T00:28:44.902Z,0.73
2023-02-02T00:31:11.998Z,1.13
2023-02-02T00:33:39.169Z,0.73
2023-02-02T00:36:06.522Z,2.97
2023-02-02T00:38:34.630Z,0.30
2023-02-02T00:41:01.418Z,0.40
2023-02-02T00:43:28.179Z,0.75
2023-02-02T00:45:55.050Z,0.65
2023-02-02T00:48:21.940Z,1.10
2023-02-02T00:50:48.859Z,0.90
2023-02-02T00:53:15.754Z,1.00
2023-02-02T00:55:42.625Z,0.20
2023-02-02T00:58:09.620Z,3.40
2023-02-02T01:00:37.676Z,1.20
2023-02-02T01:03:06.158Z,0.63
2023-02-02T01:05:34.539Z,0.73
2023-02-02T01:08:01.731Z,0.50
2023-02-02T01:10:28.757Z,0.35
2023-02-02T01:12:55.573Z,1.10
2023-02-02T01:15:22.698Z,1.42
2023-02-02T01:17:49.686Z,1.65
2023-02-02T01:20:19.517Z,0.90
2023-02-02T01:22:47.597Z,0.40
2023-02-02T01:25:14.746Z,1.40
2023-02-02T01:27:43.124Z,0.30
2023-02-02T01:30:10.801Z,0.20
2023-02-02T01:32:37.788Z,0.70
2023-02-02T01:35:04.823Z,0.47
2023-02-02T01:37:31.645Z,0.40
2023-02-02T01:39:58.698Z,0.70
2023-02-02T01:42:26.453Z,1.85
2023-02-02T01:45:11.710Z,0.20
2023-02-02T01:47:45.810Z,2.72
2023-02-02T01:50:16.617Z,0.90
2023-02-02T01:52:47.900Z,0.35
2023-02-02T01:55:17.710Z,0.20
2023-02-02T01:57:51.888Z,1.50
2023-02-02T02:00:25.533Z,0.32
2023-02-02T02:02:55.440Z,0.25
2023-02-02T02:05:32.032Z,0.45
2023-02-02T02:08:08.214Z,0.55
2023-02-02T02:10:35.133Z,0.55
2023-02-02T02:13:02.113Z,0.52
2023-02-02T02:15:57.108Z,0.82
2023-02-02T02:18:53.142Z,0.22
2023-02-02T02:21:41.223Z,0.77
2023-02-02T02:25:04.213Z,0.40
2023-02-02T02:27:49.548Z,0.28
2023-02-02T02:30:42.696Z,0.30
2023-02-02T02:33:37.624Z,0.47
2023-02-02T02:36:17.424Z,0.30
2023-02-02T02:39:10.365Z,0.30
2023-02-02T02:41:44.774Z,2.80
2023-02-02T02:44:16.384Z,0.65
2023-02-02T02:46:44.378Z,0.85
2023-02-02T02:49:13.102Z,1.05
2023-02-02T02:51:54.452Z,3.38
2023-02-02T02:54:45.624Z,0.30
2023-02-02T02:57:26.238Z,2.20
2023-02-02T03:00:29.755Z,0.40
2023-02-02T03:03:16.416Z,1.45
2023-02-02T03:06:10.966Z,0.45
2023-02-02T03:08:48.132Z,1.05
2023-02-02T03:11:15.949Z,0.80
2023-02-02T03:13:43.422Z,0.30
2023-02-02T03:16:11.281Z,0.57
2023-02-02T03:18:39.189Z,0.30
2023-02-02T03:21:06.108Z,0.73
2023-02-02T03:23:33.341Z,0.30
2023-02-02T03:26:00.462Z,1.00
2023-02-02T03:28:28.210Z,0.38
2023-02-02T03:30:56.237Z,0.60
2023-02-02T03:33:23.550Z,0.63
2023-02-02T03:35:50.535Z,0.80
2023-02-02T03:38:17.311Z,2.05
2023-02-02T03:40:44.732Z,0.80
2023-02-02T03:43:11.535Z,0.82
2023-02-02T03:45:40.828Z,1.65
2023-02-02T03:48:07.708Z,0.88
2023-02-02T03:50:34.866Z,3.15
2023-02-02T03:53:01.723Z,0.30
2023-02-02T03:55:28.678Z,1.23
2023-02-02T03:57:55.474Z,0.88
2023-02-02T04:00:22.696Z,1.17
2023-02-02T04:02:49.535Z,1.20
2023-02-02T04:05:16.409Z,0.75
2023-02-02T04:07:43.372Z,0.52
2023-02-02T04:10:10.819Z,1.67
2023-02-02T04:12:37.575Z,0.60
2023-02-02T04:15:05.039Z,0.55
2023-02-02T04:17:31.943Z,0.68
2023-02-02T04:19:58.775Z,0.68
2023-02-02T04:22:26.509Z,0.35
2023-02-02T04:24:53.966Z,0.30
2023-02-02T04:27:20.756Z,0.30
2023-02-02T04:29:47.694Z,0.43
2023-02-02T04:32:18.514Z,1.48
2023-02-02T04:34:45.601Z,0.40
2023-02-02T04:37:12.518Z,0.55
2023-02-02T04:39:39.662Z,0.57
2023-02-02T04:42:06.685Z,0.55
2023-02-02T04:44:33.974Z,0.95
2023-02-02T04:47:01.014Z,0.73
2023-02-02T04:49:27.931Z,0.40
2023-02-02T04:51:54.597Z,0.93
2023-02-02T04:54:21.424Z,0.60
2023-02-02T04:56:48.140Z,0.50
2023-02-02T04:59:14.853Z,2.60
2023-02-02T05:01:41.596Z,0.55
2023-02-02T05:04:08.613Z,3.30
2023-02-02T05:06:35.304Z,1.58
2023-02-02T05:09:01.988Z,1.48
2023-02-02T05:11:28.768Z,0.60
2023-02-02T05:13:55.574Z,1.45
2023-02-02T05:16:23.697Z,1.52
2023-02-02T05:18:56.736Z,1.23
2023-02-02T05:21:23.695Z,0.88
2023-02-02T05:23:50.611Z,0.75
2023-02-02T05:26:23.432Z,0.68
2023-02-02T05:28:50.361Z,1.27
2023-02-02T05:31:17.480Z,1.08
2023-02-02T05:33:44.352Z,1.48
2023-02-02T05:36:11.973Z,0.82
2023-02-02T05:38:38.910Z,1.63
2023-02-02T05:41:05.719Z,2.92
2023-02-02T05:43:33.425Z,6.13
2023-02-02T05:46:00.516Z,0.73
2023-02-02T05:48:27.436Z,0.40
2023-02-02T05:51:03.900Z,1.38
2023-02-02T05:53:31.852Z,1.73
2023-02-02T05:55:58.787Z,0.50
2023-02-02T05:58:25.962Z,0.90
2023-02-02T06:00:53.972Z,1.30
2023-02-02T06:03:22.690Z,1.27
2023-02-02T06:05:49.564Z,0.75
2023-02-02T06:08:16.342Z,0.68
2023-02-02T06:10:43.198Z,1.63
2023-02-02T06:13:10.013Z,2.33
2023-02-02T06:15:37.164Z,0.98
2023-02-02T06:18:06.253Z,0.85
2023-02-02T06:20:33.124Z,0.52
2023-02-02T06:22:59.816Z,1.05
2023-02-02T06:25:26.715Z,2.58
2023-02-02T06:28:00.833Z,0.70
2023-02-02T06:30:28.374Z,1.13
2023-02-02T06:32:55.117Z,0.98
2023-02-02T06:35:21.917Z,0.55
2023-02-02T06:37:49.248Z,1.17
2023-02-02T06:40:16.319Z,2.05
2023-02-02T06:42:43.035Z,0.50
2023-02-02T06:45:10.417Z,1.27
2023-02-02T06:47:37.294Z,1.83
2023-02-02T06:50:04.787Z,0.82
2023-02-02T06:52:31.474Z,0.88
2023-02-02T06:54:58.149Z,1.00
2023-02-02T06:57:24.861Z,2.50
2023-02-02T06:59:52.345Z,0.80
2023-02-02T07:02:19.313Z,0.50
2023-02-02T07:04:46.166Z,0.80
2023-02-02T07:07:12.927Z,0.80
2023-02-02T07:09:39.758Z,0.80
2023-02-02T07:12:06.748Z,0.55
2023-02-02T07:14:33.440Z,1.58
2023-02-02T07:17:00.127Z,2.10
2023-02-02T07:19:26.828Z,2.25
2023-02-02T07:21:53.833Z,1.35
2023-02-02T07:24:20.539Z,2.65
2023-02-02T07:26:47.319Z,1.83
2023-02-02T07:29:14.415Z,1.98
2023-02-02T07:31:41.548Z,2.17
2023-02-02T07:34:08.469Z,3.28
2023-02-02T07:36:35.553Z,8.75
2023-02-02T07:39:04.790Z,16.05
2023-02-02T07:41:33.301Z,24.30
2023-02-02T07:44:00.115Z,2.00
2023-02-02T07:46:27.042Z,2.70
2023-02-02T07:48:55.629Z,1.55
2023-02-02T07:51:22.556Z,1.02
2023-02-02T07:53:51.531Z,6.28
2023-02-02T07:56:20.664Z,13.60
2023-02-02T07:58:47.737Z,12.07
2023-02-02T08:01:16.176Z,12.65
2023-02-02T08:03:43.712Z,10.70
2023-02-02T08:06:19.152Z,9.57
2023-02-02T08:08:46.266Z,2.25
2023-02-02T08:11:14.384Z,7.55
2023-02-02T08:13:41.890Z,2.67
2023-02-02T08:16:09.384Z,2.28
2023-02-02T08:18:37.054Z,2.38
2023-02-02T08:21:05.584Z,2.45
2023-02-02T08:23:32.692Z,0.98
2023-02-02T08:26:11.166Z,4.00
2023-02-02T08:28:38.945Z,1.42
2023-02-02T08:31:10.890Z,1.80
2023-02-02T08:33:38.710Z,1.88
2023-02-02T08:36:19.854Z,0.65
2023-02-02T08:38:47.221Z,0.65
2023-02-02T08:41:16.386Z,1.52
2023-02-02T08:43:43.911Z,0.60
2023-02-02T08:46:13.132Z,1.23
2023-02-02T08:48:40.888Z,2.47
2023-02-02T08:51:10.459Z,1.02
2023-02-02T08:53:37.154Z,1.35
2023-02-02T08:56:10.647Z,0.60
2023-02-02T08:58:37.616Z,2.65
2023-02-02T09:01:11.110Z,1.30
2023-02-02T09:03:40.413Z,1.50
2023-02-02T09:06:08.695Z,0.88
2023-02-02T09:08:36.034Z,2.22
2023-02-02T09:11:14.309Z,0.52
2023-02-02T09:13:41.973Z,1.55
2023-02-02T09:16:11.151Z,0.63
2023-02-02T09:18:38.173Z,0.80
2023-02-02T09:21:07.334Z,0.60
2023-02-02T09:23:36.452Z,0.65
2023-02-02T09:26:29.981Z,1.75
2023-02-02T09:28:59.375Z,0.40
2023-02-02T09:31:26.730Z,0.45
2023-02-02T09:33:53.825Z,1.38
2023-02-02T09:36:25.047Z,3.55
2023-02-02T09:38:51.889Z,1.38
2023-02-02T09:41:29.642Z,0.80
2023-02-02T09:44:33.737Z,1.35
2023-02-02T09:47:10.339Z,0.47
2023-02-02T09:49:41.736Z,1.23
2023-02-02T09:54:51.787Z,0.68
2023-02-02T09:57:27.255Z,5.53
2023-02-02T09:59:55.095Z,2.08
2023-02-02T10:02:30.930Z,1.50
2023-02-02T10:05:08.255Z,1.73
2023-02-02T10:07:41.225Z,1.02
2023-02-02T10:10:32.387Z,2.17
2023-02-02T10:13:17.958Z,0.88
2023-02-02T10:15:55.787Z,1.55
2023-02-02T10:18:45.373Z,0.80
2023-02-02T10:21:37.063Z,1.52
2023-02-02T10:24:04.746Z,3.80
2023-02-02T10:26:39.076Z,0.95
2023-02-02T10:29:48.861Z,0.75
2023-02-02T10:32:24.833Z,1.40
2023-02-02T10:35:17.014Z,0.50
2023-02-02T10:37:56.902Z,1.60
2023-02-02T10:40:42.772Z,1.83
2023-02-02T10:43:46.805Z,2.67
2023-02-02T10:46:37.956Z,2.58
2023-02-02T10:49:32.422Z,0.80
2023-02-02T10:52:11.311Z,0.73
2023-02-02T10:54:58.414Z,0.80
2023-02-02T10:57:50.371Z,1.20
2023-02-02T11:00:27.555Z,1.20
2023-02-02T11:02:54.619Z,0.98
2023-02-02T11:05:46.241Z,0.75
2023-02-02T11:10:43.274Z,1.50
2023-02-02T11:13:15.920Z,0.60
2023-02-02T11:15:42.680Z,0.47
2023-02-02T11:18:28.868Z,0.80
2023-02-02T11:20:56.427Z,1.00
2023-02-02T11:23:25.068Z,1.77
2023-02-02T11:26:01.298Z,1.20
2023-02-02T11:28:31.073Z,1.10
2023-02-02T11:30:58.751Z,0.73
2023-02-02T11:33:36.528Z,1.02
2023-02-02T11:36:19.532Z,1.48
2023-02-02T11:38:46.304Z,0.47
2023-02-02T11:41:15.370Z,0.88
2023-02-02T11:43:52.750Z,0.63
2023-02-02T11:46:21.092Z,0.45
2023-02-02T11:48:57.207Z,0.88
2023-02-02T11:51:26.211Z,0.90
2023-02-02T11:54:18.303Z,0.80
2023-02-02T11:56:51.368Z,0.43
2023-02-02T11:59:41.117Z,0.38
2023-02-02T12:02:10.627Z,1.60
2023-02-02T12:04:37.597Z,0.50
2023-02-02T12:07:19.697Z,0.90
2023-02-02T12:09:46.410Z,0.75
2023-02-02T12:12:35.111Z,2.38
2023-02-02T12:15:36.896Z,0.68
2023-02-02T12:20:54.916Z,0.77
2023-02-02T12:23:37.436Z,0.50
2023-02-02T12:26:27.482Z,0.30
2023-02-02T12:29:08.564Z,0.45
2023-02-02T12:31:47.124Z,0.60
2023-02-02T12:34:42.541Z,0.98
2023-02-02T12:37:34.640Z,0.88
2023-02-02T12:40:30.132Z,0.30
2023-02-02T12:43:23.500Z,0.47
2023-02-02T12:45:56.373Z,0.73
2023-02-02T12:48:32.794Z,0.47
2023-02-02T12:51:24.363Z,1.58
2023-02-02T12:54:34.717Z,0.73
2023-02-02T12:57:00.893Z,0.55
2023-02-02T12:59:47.891Z,0.45
2023-02-02T13:02:26.541Z,0.40
2023-02-02T13:08:15.063Z,0.68
2023-02-02T13:10:51.678Z,0.88
2023-02-02T13:13:29.245Z,0.63
2023-02-02T13:16:02.960Z,0.85
2023-02-02T13:18:35.664Z,0.95
2023-02-02T13:21:06.890Z,0.90
2023-02-02T13:23:37.142Z,0.32
2023-02-02T13:26:13.415Z,0.85
2023-02-02T13:28:53.044Z,0.73
2023-02-02T13:31:42.607Z,0.47
2023-02-02T13:34:29.053Z,0.40
2023-02-02T13:37:23.877Z,2.22
2023-02-02T13:40:00.902Z,0.47
2023-02-02T13:42:42.017Z,0.32
2023-02-02T13:45:30.540Z,0.20
2023-02-02T13:48:25.093Z,0.47
2023-02-02T13:51:30.319Z,1.33
2023-02-02T13:54:44.758Z,1.08
2023-02-02T13:57:30.926Z,0.40
2023-02-02T14:00:04.117Z,0.30
2023-02-02T14:03:05.113Z,0.30
2023-02-02T14:05:37.863Z,0.30
2023-02-02T14:08:18.363Z,1.08
2023-02-02T14:10:53.986Z,1.25
2023-02-02T14:13:44.425Z,1.15
2023-02-02T14:16:42.565Z,0.40
2023-02-02T14:19:41.487Z,1.50
2023-02-02T14:22:14.449Z,1.65
2023-02-02T14:24:53.938Z,0.77
2023-02-02T14:27:20.695Z,0.40
2023-02-02T14:29:47.389Z,0.32
2023-02-02T14:32:29.509Z,0.50
2023-02-02T14:35:08.539Z,1.30
2023-02-02T14:37:58.990Z,0.73
2023-02-02T14:41:06.649Z,1.67
2023-02-02T14:43:46.183Z,1.35
2023-02-02T14:46:12.969Z,0.60
2023-02-02T14:48:42.267Z,1.92
2023-02-02T14:51:18.343Z,0.35
2023-02-02T14:53:54.967Z,1.05
2023-02-02T14:56:39.097Z,0.60
2023-02-02T14:59:07.642Z,1.17
2023-02-02T15:01:38.855Z,0.50
2023-02-02T15:04:23.662Z,1.42
2023-02-02T15:06:55.926Z,0.80
2023-02-02T15:09:25.427Z,1.45
2023-02-02T15:12:03.882Z,0.55
2023-02-02T15:14:41.384Z,1.20
2023-02-02T15:17:26.127Z,0.50
2023-02-02T15:20:05.004Z,0.30
2023-02-02T15:22:41.531Z,0.52
2023-02-02T15:25:33.764Z,0.30
2023-02-02T15:28:25.392Z,0.50
2023-02-02T15:33:37.585Z,0.55
2023-02-02T15:36:11.048Z,0.98
2023-02-02T15:38:41.087Z,4.00
2023-02-02T15:41:22.838Z,0.40
2023-02-02T15:43:50.321Z,1.08
2023-02-02T15:46:24.632Z,0.65
2023-02-02T15:49:35.907Z,0.55
2023-02-02T15:52:21.348Z,2.38
2023-02-02T15:54:57.032Z,0.60
2023-02-02T15:57:35.153Z,6.05
2023-02-02T16:00:30.644Z,2.25
2023-02-02T16:03:23.500Z,1.33
2023-02-02T16:05:53.515Z,1.85
2023-02-02T16:08:29.901Z,3.08
2023-02-02T16:11:09.423Z,2.65
2023-02-02T16:13:37.194Z,2.55
2023-02-02T16:16:22.907Z,6.00
2023-02-02T16:19:34.113Z,1.90
2023-02-02T16:22:07.492Z,1.60
2023-02-02T16:24:40.545Z,1.83
2023-02-02T16:27:12.653Z,1.52
2023-02-02T16:29:41.361Z,1.98
2023-02-02T16:32:32.160Z,8.73
2023-02-02T16:35:00.451Z,11.07
2023-02-02T16:37:32.281Z,9.73
2023-02-02T16:40:38.387Z,5.05
2023-02-02T16:43:26.997Z,4.65
2023-02-02T16:46:01.238Z,2.58
2023-02-02T16:48:37.053Z,3.30
2023-02-02T16:51:15.691Z,4.00
2023-02-02T16:54:05.253Z,2.90
2023-02-02T16:56:38.508Z,4.82
2023-02-02T16:59:33.496Z,2.65
2023-02-02T17:02:21.359Z,1.90
2023-02-02T17:04:52.125Z,3.22
2023-02-02T17:07:20.353Z,2.50
2023-02-02T17:09:48.952Z,3.60
2023-02-02T17:12:31.561Z,4.82
2023-02-02T17:15:05.026Z,2.17
2023-02-02T17:17:31.738Z,3.03
2023-02-02T17:19:58.377Z,2.95
2023-02-02T17:22:27.823Z,5.82
2023-02-02T17:24:54.736Z,9.25
2023-02-02T17:27:33.875Z,2.30
2023-02-02T17:30:02.531Z,7.40
2023-02-02T17:32:29.342Z,3.55
2023-02-02T17:34:56.401Z,3.30
2023-02-02T17:37:23.090Z,3.67
2023-02-02T17:39:50.770Z,3.20
2023-02-02T17:42:27.702Z,4.30
2023-02-02T17:44:54.369Z,2.22
2023-02-02T17:47:21.045Z,5.05
2023-02-02T17:49:47.701Z,5.50
2023-02-02T17:52:14.395Z,1.98
2023-02-02T17:54:41.093Z,3.67
2023-02-02T17:57:07.911Z,2.00
2023-02-02T17:59:34.562Z,1.80
2023-02-02T18:02:01.817Z,3.53
2023-02-02T18:04:28.863Z,2.70
2023-02-02T18:06:55.575Z,2.92
2023-02-02T18:09:22.266Z,2.65
2023-02-02T18:11:53.526Z,3.90
2023-02-02T18:14:20.189Z,12.35
2023-02-02T18:16:46.863Z,56.08
2023-02-02T18:19:13.575Z,66.70
2023-02-02T18:21:40.239Z,29.67
2023-02-02T18:24:07.000Z,8.95
2023-02-02T18:26:34.649Z,6.20
2023-02-02T18:29:01.405Z,4.40
2023-02-02T18:31:28.205Z,6.47
2023-02-02T18:33:54.931Z,4.82
2023-02-02T18:36:23.717Z,8.20
2023-02-02T18:38:51.485Z,10.32
2023-02-02T18:41:21.452Z,3.60
2023-02-02T18:43:48.443Z,4.25
2023-02-02T18:46:16.560Z,3.85
2023-02-02T18:48:43.666Z,3.33
2023-02-02T18:51:18.123Z,2.30
2023-02-02T18:53:46.795Z,1.55
2023-02-02T18:56:15.145Z,4.60
2023-02-02T18:58:42.186Z,3.28
2023-02-02T19:01:17.632Z,1.40
2023-02-02T19:03:49.093Z,3.65
2023-02-02T19:09:01.245Z,10.68
2023-02-02T19:11:35.536Z,13.52
2023-02-02T19:14:02.272Z,14.23
2023-02-02T19:16:32.877Z,9.00
2023-02-02T19:19:18.370Z,6.88
2023-02-02T19:21:45.057Z,4.00
2023-02-02T19:24:13.329Z,2.83
2023-02-02T19:26:45.939Z,5.32
2023-02-02T19:29:20.031Z,5.82
2023-02-02T19:31:50.949Z,3.85
2023-02-02T19:34:21.412Z,4.45
2023-02-02T19:36:50.185Z,2.07
2023-02-02T19:39:25.289Z,6.03
2023-02-02T19:41:54.100Z,4.05
2023-02-02T19:44:29.000Z,6.97
2023-02-02T19:46:56.788Z,8.88
2023-02-02T19:49:32.069Z,21.60
2023-02-02T19:51:59.909Z,7.22
2023-02-02T19:54:36.524Z,8.43
2023-02-02T19:57:41.770Z,7.00
2023-02-02T20:00:25.448Z,6.13
2023-02-02T20:03:07.341Z,6.55
2023-02-02T20:05:36.008Z,6.88
2023-02-02T20:08:18.987Z,9.13
2023-02-02T20:10:46.396Z,9.15
2023-02-02T20:13:23.597Z,7.35
2023-02-02T20:16:03.597Z,8.43
2023-02-02T20:18:44.430Z,9.70
2023-02-02T20:21:43.134Z,6.82
2023-02-02T20:24:32.653Z,7.57
2023-02-02T20:27:14.164Z,6.10
2023-02-02T20:32:28.972Z,9.25
2023-02-02T20:34:59.277Z,13.70
2023-02-02T20:37:35.613Z,7.47
2023-02-02T20:40:24.539Z,9.95
2023-02-02T20:42:58.352Z,10.65
2023-02-02T20:45:25.616Z,10.95
2023-02-02T20:47:52.761Z,10.10
2023-02-02T20:50:25.365Z,7.80
2023-02-02T20:52:53.585Z,8.52
2023-02-02T20:55:25.733Z,6.95
2023-02-02T20:57:53.449Z,6.72
2023-02-02T21:00:24.538Z,7.25
2023-02-02T21:05:20.039Z,4.80
2023-02-02T21:07:47.361Z,9.13
2023-02-02T21:10:15.142Z,9.50
2023-02-02T21:12:48.385Z,5.47
2023-02-02T21:15:17.680Z,5.38
2023-02-02T21:17:45.566Z,4.68
2023-02-02T21:20:13.812Z,7.00
2023-02-02T21:22:40.735Z,5.65
2023-02-02T21:25:09.125Z,3.35
2023-02-02T21:27:41.268Z,7.35
2023-02-02T21:30:14.041Z,4.32
2023-02-02T21:32:40.908Z,5.97
2023-02-02T21:35:07.886Z,5.25
2023-02-02T21:37:38.436Z,4.47
2023-02-02T21:40:15.087Z,5.20
2023-02-02T21:42:49.271Z,6.57
2023-02-02T21:45:28.428Z,7.45
2023-02-02T21:48:00.525Z,4.22
2023-02-02T21:50:34.535Z,6.93
2023-02-02T21:53:13.368Z,5.50
2023-02-02T21:55:40.718Z,7.00
2023-02-02T21:58:19.171Z,4.40
2023-02-02T22:00:46.665Z,8.90
2023-02-02T22:03:33.890Z,7.50
2023-02-02T22:06:20.816Z,12.50
2023-02-02T22:08:53.488Z,8.65
2023-02-02T22:11:29.342Z,11.70
2023-02-02T22:14:19.650Z,14.57
2023-02-02T22:16:56.911Z,10.43
2023-02-02T22:19:27.152Z,12.40
2023-02-02T22:22:02.166Z,10.27
2023-02-02T22:24:32.297Z,8.55
2023-02-02T22:26:59.344Z,9.98
2023-02-02T22:29:36.125Z,7.38
2023-02-02T22:32:02.855Z,7.95
2023-02-02T22:34:33.824Z,9.00
2023-02-02T22:37:07.469Z,11.23
2023-02-02T22:39:38.577Z,7.55
2023-02-02T22:42:06.615Z,9.68
2023-02-02T22:44:37.151Z,9.23
2023-02-02T22:47:05.112Z,7.82
2023-02-02T22:49:31.930Z,7.55
2023-02-02T22:51:58.952Z,8.82
2023-02-02T22:54:25.781Z,5.40
2023-02-02T22:56:52.910Z,4.80
2023-02-02T22:59:19.632Z,5.40
2023-02-02T23:01:46.370Z,10.23
2023-02-02T23:04:13.205Z,5.85
2023-02-02T23:06:39.923Z,8.15
2023-02-02T23:09:06.639Z,4.20
2023-02-02T23:11:33.525Z,6.22
2023-02-02T23:14:00.234Z,4.22
2023-02-02T23:16:27.332Z,4.68
2023-02-02T23:18:57.949Z,3.70
2023-02-02T23:21:27.675Z,4.80
2023-02-02T23:23:55.936Z,3.80
2023-02-02T23:26:23.614Z,4.05
2023-02-02T23:28:50.752Z,5.78
2023-02-02T23:31:20.922Z,4.00
2023-02-02T23:33:50.704Z,9.63
2023-02-02T23:36:18.470Z,12.32
2023-02-02T23:38:48.344Z,10.68
2023-02-02T23:41:15.103Z,12.27
2023-02-02T23:43:42.687Z,8.93
2023-02-02T23:46:10.393Z,6.68
2023-02-02T23:48:41.010Z,4.97
2023-02-02T23:51:07.796Z,9.15
2023-02-02T23:53:37.175Z,5.07
2023-02-02T23:56:05.651Z,3.72
2023-02-02T23:58:32.535Z,3.90
